This is the latest recevied weather packets stored in our database for station/object SP1BMW-13. If no packets are shown the sender has not sent any weather packets the latest 10 day(s).
| Time | Temp. | Humidity | Pressure | Rain* | Wind** | Luminosity | Snow |
|---|---|---|---|---|---|---|---|
| 1787671325 | 24.44° C | 41% | 1018.1 hPa | 0 mm | 0.89 m/s, 352° | 110 W/m² | - |
| 1787671266 | 24.44° C | 41% | 1018.1 hPa | 0 mm | 0.89 m/s, 21° | 319 W/m² | - |
| 1787671206 | 24.44° C | 40% | 1018 hPa | 0 mm | 0.89 m/s, 322° | 331 W/m² | - |
| 1787671145 | 24.44° C | 39% | 1017.9 hPa | 0 mm | 1.34 m/s, 38° | 333 W/m² | - |
| 1787671086 | 24.44° C | 40% | 1018.1 hPa | 0 mm | 0.45 m/s, 55° | 340 W/m² | - |
| 1787671026 | 24.44° C | 40% | 1018 hPa | 0 mm | 0.89 m/s, 81° | 347 W/m² | - |
| 1787670965 | 24.44° C | 41% | 1017.9 hPa | 0 mm | 1.79 m/s, 174° | 350 W/m² | - |
| 1787670905 | 24.44° C | 41% | 1017.9 hPa | 0 mm | 0.89 m/s, 29° | 355 W/m² | - |
| 1787670845 | 24.44° C | 40% | 1018 hPa | 0 mm | 0.45 m/s, 49° | 357 W/m² | - |
| 1787670785 | 24.44° C | 41% | 1017.8 hPa | 0 mm | 1.79 m/s, 67° | 357 W/m² | - |
| 1787670725 | 23.89° C | 40% | 1017.9 hPa | 0 mm | 0.45 m/s, 90° | 356 W/m² | - |
| 1787670666 | 23.89° C | 41% | 1018.1 hPa | 0 mm | 0.89 m/s, 14° | 353 W/m² | - |
| 1787670605 | 23.89° C | 41% | 1017.8 hPa | 0 mm | 0.89 m/s, 58° | 350 W/m² | - |
| 1787670545 | 23.89° C | 41% | 1018 hPa | 0 mm | 0.89 m/s, 68° | 347 W/m² | - |
| 1787670485 | 23.89° C | 39% | 1017.9 hPa | 0 mm | 1.34 m/s, 53° | 346 W/m² | - |
| 1787670425 | 23.89° C | 42% | 1018 hPa | 0 mm | 0.45 m/s, 356° | 346 W/m² | - |
| 1787670365 | 23.89° C | 40% | 1018 hPa | 0 mm | 0.89 m/s, 42° | 345 W/m² | - |
| 1787670305 | 23.89° C | 39% | 1018 hPa | 0 mm | 0.45 m/s, 130° | 340 W/m² | - |
| 1787670245 | 23.89° C | 40% | 1017.8 hPa | 0 mm | 1.79 m/s, 37° | 339 W/m² | - |
| 1787670185 | 23.89° C | 40% | 1017.9 hPa | 0 mm | 1.34 m/s, 40° | 338 W/m² | - |
| 1787670125 | 23.89° C | 42% | 1018 hPa | 0 mm | 0.89 m/s, 101° | 340 W/m² | - |
| 1787670065 | 23.89° C | 41% | 1017.9 hPa | 0 mm | 1.34 m/s, 114° | 343 W/m² | - |
| 1787669945 | 23.89° C | 40% | 1018 hPa | 0 mm | 0.89 m/s, 66° | 347 W/m² | - |
| 1787669885 | 23.89° C | 41% | 1017.8 hPa | 0 mm | 0.89 m/s, 14° | 350 W/m² | - |
| 1787669825 | 23.89° C | 41% | 1017.8 hPa | 0 mm | 0.89 m/s, 50° | 353 W/m² | - |
* Rain latest hour (hover to see other rain measurements)
** Current wind speed in m/s (hover to see current wind gust speed)